sensor_id;sensor_type;location;lat;lon;timestamp;temperature;humidity
21001;DHT22;10658;50.920;12.238;2022-09-09T00:03:37;13.90;99.90
21001;DHT22;10658;50.920;12.238;2022-09-09T00:07:48;13.80;99.90
21001;DHT22;10658;50.920;12.238;2022-09-09T00:11:58;13.80;99.90
21001;DHT22;10658;50.920;12.238;2022-09-09T00:20:43;13.80;99.90
21001;DHT22;10658;50.920;12.238;2022-09-09T00:24:54;13.80;99.90
21001;DHT22;10658;50.920;12.238;2022-09-09T00:33:11;13.80;99.90
21001;DHT22;10658;50.920;12.238;2022-09-09T00:37:15;14.00;99.90
21001;DHT22;10658;50.920;12.238;2022-09-09T00:41:30;14.00;99.90
21001;DHT22;10658;50.920;12.238;2022-09-09T00:58:07;13.90;99.90
21001;DHT22;10658;50.920;12.238;2022-09-09T01:06:36;13.50;99.90
21001;DHT22;10658;50.920;12.238;2022-09-09T01:10:53;13.30;99.90
21001;DHT22;10658;50.920;12.238;2022-09-09T01:15:19;13.20;99.90
21001;DHT22;10658;50.920;12.238;2022-09-09T01:28:31;13.30;99.90
21001;DHT22;10658;50.920;12.238;2022-09-09T01:32:55;13.30;99.90
21001;DHT22;10658;50.920;12.238;2022-09-09T01:37:02;13.30;99.90
21001;DHT22;10658;50.920;12.238;2022-09-09T01:41:06;13.30;99.90
21001;DHT22;10658;50.920;12.238;2022-09-09T01:45:37;13.30;99.90
21001;DHT22;10658;50.920;12.238;2022-09-09T01:49:40;13.40;99.90
21001;DHT22;10658;50.920;12.238;2022-09-09T01:53:51;13.50;99.90
21001;DHT22;10658;50.920;12.238;2022-09-09T01:58:13;13.50;99.90
21001;DHT22;10658;50.920;12.238;2022-09-09T02:06:48;13.70;99.90
21001;DHT22;10658;50.920;12.238;2022-09-09T02:11:02;13.80;99.90
21001;DHT22;10658;50.920;12.238;2022-09-09T02:19:32;13.80;99.90
21001;DHT22;10658;50.920;12.238;2022-09-09T02:23:43;13.70;99.90
21001;DHT22;10658;50.920;12.238;2022-09-09T02:27:49;13.60;99.90
21001;DHT22;10658;50.920;12.238;2022-09-09T02:31:52;13.60;99.90
21001;DHT22;10658;50.920;12.238;2022-09-09T02:36:01;13.50;99.90
21001;DHT22;10658;50.920;12.238;2022-09-09T02:40:07;13.50;99.90
21001;DHT22;10658;50.920;12.238;2022-09-09T02:44:16;13.40;99.90
21001;DHT22;10658;50.920;12.238;2022-09-09T02:48:30;13.40;99.90
21001;DHT22;10658;50.920;12.238;2022-09-09T02:56:52;13.50;99.90
21001;DHT22;10658;50.920;12.238;2022-09-09T03:01:01;13.40;99.90
21001;DHT22;10658;50.920;12.238;2022-09-09T03:05:06;13.40;99.90
21001;DHT22;10658;50.920;12.238;2022-09-09T03:09:07;13.30;99.90
21001;DHT22;10658;50.920;12.238;2022-09-09T03:13:11;13.30;99.90
21001;DHT22;10658;50.920;12.238;2022-09-09T03:17:14;13.30;99.90
21001;DHT22;10658;50.920;12.238;2022-09-09T03:21:23;13.30;99.90
21001;DHT22;10658;50.920;12.238;2022-09-09T03:25:26;13.30;99.90
21001;DHT22;10658;50.920;12.238;2022-09-09T03:29:28;13.30;99.90
21001;DHT22;10658;50.920;12.238;2022-09-09T03:33:32;13.30;99.90
21001;DHT22;10658;50.920;12.238;2022-09-09T03:37:35;13.20;99.90
21001;DHT22;10658;50.920;12.238;2022-09-09T03:41:37;13.10;99.90
21001;DHT22;10658;50.920;12.238;2022-09-09T03:45:41;13.10;99.90
21001;DHT22;10658;50.920;12.238;2022-09-09T03:49:44;13.20;99.90
21001;DHT22;10658;50.920;12.238;2022-09-09T03:53:45;13.20;99.90
21001;DHT22;10658;50.920;12.238;2022-09-09T03:57:47;13.00;99.90
21001;DHT22;10658;50.920;12.238;2022-09-09T04:01:49;12.80;99.90
21001;DHT22;10658;50.920;12.238;2022-09-09T04:05:54;12.80;99.90
21001;DHT22;10658;50.920;12.238;2022-09-09T04:09:58;12.70;99.90
21001;DHT22;10658;50.920;12.238;2022-09-09T04:14:00;12.70;99.90
21001;DHT22;10658;50.920;12.238;2022-09-09T04:18:03;12.70;99.90
21001;DHT22;10658;50.920;12.238;2022-09-09T04:22:04;12.70;99.90
21001;DHT22;10658;50.920;12.238;2022-09-09T04:26:06;12.70;99.90
21001;DHT22;10658;50.920;12.238;2022-09-09T04:30:09;12.70;99.90
21001;DHT22;10658;50.920;12.238;2022-09-09T04:34:11;12.90;99.90
21001;DHT22;10658;50.920;12.238;2022-09-09T04:38:14;12.90;99.90
21001;DHT22;10658;50.920;12.238;2022-09-09T04:42:16;13.00;99.90
21001;DHT22;10658;50.920;12.238;2022-09-09T04:46:21;12.90;99.90
21001;DHT22;10658;50.920;12.238;2022-09-09T04:50:24;12.90;99.90
21001;DHT22;10658;50.920;12.238;2022-09-09T04:54:32;12.90;99.90
21001;DHT22;10658;50.920;12.238;2022-09-09T04:58:34;13.00;99.90
21001;DHT22;10658;50.920;12.238;2022-09-09T05:02:37;13.20;99.90
21001;DHT22;10658;50.920;12.238;2022-09-09T05:06:39;13.20;99.90
21001;DHT22;10658;50.920;12.238;2022-09-09T05:10:41;13.30;99.90
21001;DHT22;10658;50.920;12.238;2022-09-09T05:14:44;13.40;99.90
21001;DHT22;10658;50.920;12.238;2022-09-09T05:18:45;13.50;99.90
21001;DHT22;10658;50.920;12.238;2022-09-09T05:22:47;13.70;99.90
21001;DHT22;10658;50.920;12.238;2022-09-09T05:26:50;13.80;99.90
21001;DHT22;10658;50.920;12.238;2022-09-09T05:31:01;13.90;99.90
21001;DHT22;10658;50.920;12.238;2022-09-09T05:35:08;14.00;99.90
21001;DHT22;10658;50.920;12.238;2022-09-09T05:39:09;14.10;99.90
21001;DHT22;10658;50.920;12.238;2022-09-09T05:43:12;14.20;99.90
21001;DHT22;10658;50.920;12.238;2022-09-09T05:47:14;14.40;99.90
21001;DHT22;10658;50.920;12.238;2022-09-09T05:51:22;14.50;99.90
21001;DHT22;10658;50.920;12.238;2022-09-09T05:55:25;14.70;99.90
21001;DHT22;10658;50.920;12.238;2022-09-09T05:59:27;14.90;99.90
21001;DHT22;10658;50.920;12.238;2022-09-09T06:03:31;14.90;99.90
21001;DHT22;10658;50.920;12.238;2022-09-09T06:11:50;15.10;99.90
21001;DHT22;10658;50.920;12.238;2022-09-09T06:15:56;15.20;99.90
21001;DHT22;10658;50.920;12.238;2022-09-09T06:19:57;15.30;99.90
21001;DHT22;10658;50.920;12.238;2022-09-09T06:23:59;15.40;99.90
21001;DHT22;10658;50.920;12.238;2022-09-09T06:28:01;15.50;99.90
21001;DHT22;10658;50.920;12.238;2022-09-09T06:32:03;15.60;99.90
21001;DHT22;10658;50.920;12.238;2022-09-09T06:36:06;15.70;99.90
21001;DHT22;10658;50.920;12.238;2022-09-09T06:40:08;15.80;99.90
21001;DHT22;10658;50.920;12.238;2022-09-09T06:44:09;15.80;99.90
21001;DHT22;10658;50.920;12.238;2022-09-09T06:48:16;15.80;99.90
21001;DHT22;10658;50.920;12.238;2022-09-09T06:52:17;15.80;99.90
21001;DHT22;10658;50.920;12.238;2022-09-09T07:00:24;15.90;99.90
21001;DHT22;10658;50.920;12.238;2022-09-09T07:04:26;15.90;99.90
21001;DHT22;10658;50.920;12.238;2022-09-09T07:08:31;15.90;99.90
21001;DHT22;10658;50.920;12.238;2022-09-09T07:12:33;15.90;99.90
21001;DHT22;10658;50.920;12.238;2022-09-09T07:16:35;16.00;99.90
21001;DHT22;10658;50.920;12.238;2022-09-09T07:20:38;16.10;99.90
21001;DHT22;10658;50.920;12.238;2022-09-09T07:24:39;16.10;99.90
21001;DHT22;10658;50.920;12.238;2022-09-09T07:28:41;16.20;99.90
21001;DHT22;10658;50.920;12.238;2022-09-09T07:32:43;16.50;99.90
21001;DHT22;10658;50.920;12.238;2022-09-09T07:36:44;16.80;99.90
21001;DHT22;10658;50.920;12.238;2022-09-09T07:40:47;17.10;99.90
21001;DHT22;10658;50.920;12.238;2022-09-09T07:44:49;17.40;99.90
21001;DHT22;10658;50.920;12.238;2022-09-09T07:48:53;17.80;99.90
21001;DHT22;10658;50.920;12.238;2022-09-09T07:52:59;18.00;99.90
21001;DHT22;10658;50.920;12.238;2022-09-09T07:57:02;18.10;99.90
21001;DHT22;10658;50.920;12.238;2022-09-09T08:01:16;18.00;99.90
21001;DHT22;10658;50.920;12.238;2022-09-09T08:05:21;18.00;99.90
21001;DHT22;10658;50.920;12.238;2022-09-09T08:09:45;18.00;99.90
21001;DHT22;10658;50.920;12.238;2022-09-09T08:13:55;18.20;99.90
21001;DHT22;10658;50.920;12.238;2022-09-09T08:17:57;18.40;99.90
21001;DHT22;10658;50.920;12.238;2022-09-09T08:21:58;18.50;99.90
21001;DHT22;10658;50.920;12.238;2022-09-09T08:26:04;18.50;99.90
21001;DHT22;10658;50.920;12.238;2022-09-09T08:30:07;18.70;99.90
21001;DHT22;10658;50.920;12.238;2022-09-09T08:34:09;18.90;99.90
21001;DHT22;10658;50.920;12.238;2022-09-09T08:38:12;19.00;99.90
21001;DHT22;10658;50.920;12.238;2022-09-09T08:42:30;19.10;99.90
21001;DHT22;10658;50.920;12.238;2022-09-09T08:46:45;19.20;99.90
21001;DHT22;10658;50.920;12.238;2022-09-09T08:50:49;19.00;99.90
21001;DHT22;10658;50.920;12.238;2022-09-09T08:59:29;19.50;99.90
21001;DHT22;10658;50.920;12.238;2022-09-09T09:07:47;20.00;99.90
21001;DHT22;10658;50.920;12.238;2022-09-09T09:11:57;19.80;99.90
21001;DHT22;10658;50.920;12.238;2022-09-09T09:16:31;20.10;99.90
21001;DHT22;10658;50.920;12.238;2022-09-09T09:24:55;19.90;99.90
21001;DHT22;10658;50.920;12.238;2022-09-09T09:29:03;19.80;99.90
21001;DHT22;10658;50.920;12.238;2022-09-09T09:37:20;21.20;99.90
21001;DHT22;10658;50.920;12.238;2022-09-09T09:41:42;21.50;99.90
21001;DHT22;10658;50.920;12.238;2022-09-09T09:45:45;21.30;99.90
21001;DHT22;10658;50.920;12.238;2022-09-09T09:49:58;21.40;99.90
21001;DHT22;10658;50.920;12.238;2022-09-09T09:58:15;21.70;99.90
21001;DHT22;10658;50.920;12.238;2022-09-09T10:02:31;22.50;99.90
21001;DHT22;10658;50.920;12.238;2022-09-09T10:06:42;22.70;99.90
21001;DHT22;10658;50.920;12.238;2022-09-09T10:19:37;21.60;99.90
21001;DHT22;10658;50.920;12.238;2022-09-09T10:24:03;21.70;99.90
21001;DHT22;10658;50.920;12.238;2022-09-09T10:28:27;22.00;99.90
21001;DHT22;10658;50.920;12.238;2022-09-09T10:36:52;22.10;99.90
21001;DHT22;10658;50.920;12.238;2022-09-09T10:57:46;22.60;99.90
21001;DHT22;10658;50.920;12.238;2022-09-09T11:02:27;22.80;99.90
21001;DHT22;10658;50.920;12.238;2022-09-09T11:06:34;23.00;99.90
21001;DHT22;10658;50.920;12.238;2022-09-09T11:19:41;23.30;99.90
21001;DHT22;10658;50.920;12.238;2022-09-09T11:23:48;23.00;99.90
21001;DHT22;10658;50.920;12.238;2022-09-09T11:36:54;23.30;99.90
21001;DHT22;10658;50.920;12.238;2022-09-09T11:40:57;23.80;99.90
21001;DHT22;10658;50.920;12.238;2022-09-09T11:45:19;23.90;99.90
21001;DHT22;10658;50.920;12.238;2022-09-09T11:49:50;23.80;99.90
21001;DHT22;10658;50.920;12.238;2022-09-09T11:53:52;23.30;99.90
21001;DHT22;10658;50.920;12.238;2022-09-09T11:58:05;23.40;99.90
21001;DHT22;10658;50.920;12.238;2022-09-09T12:02:24;23.90;99.90
21001;DHT22;10658;50.920;12.238;2022-09-09T12:06:51;23.60;99.90
21001;DHT22;10658;50.920;12.238;2022-09-09T12:10:55;23.70;99.90
21001;DHT22;10658;50.920;12.238;2022-09-09T12:23:50;24.40;99.90
21001;DHT22;10658;50.920;12.238;2022-09-09T12:32:11;24.70;99.90
21001;DHT22;10658;50.920;12.238;2022-09-09T12:36:28;25.50;99.90
21001;DHT22;10658;50.920;12.238;2022-09-09T12:40:32;25.60;99.90
21001;DHT22;10658;50.920;12.238;2022-09-09T12:44:35;24.70;99.90
21001;DHT22;10658;50.920;12.238;2022-09-09T12:48:44;24.80;99.90
21001;DHT22;10658;50.920;12.238;2022-09-09T12:52:48;24.90;99.90
21001;DHT22;10658;50.920;12.238;2022-09-09T12:56:51;25.00;99.90
21001;DHT22;10658;50.920;12.238;2022-09-09T13:00:54;25.50;99.90
21001;DHT22;10658;50.920;12.238;2022-09-09T13:05:12;26.10;99.90
21001;DHT22;10658;50.920;12.238;2022-09-09T13:09:15;25.70;99.90
21001;DHT22;10658;50.920;12.238;2022-09-09T13:13:19;24.30;99.90
21001;DHT22;10658;50.920;12.238;2022-09-09T13:17:28;23.90;99.90
21001;DHT22;10658;50.920;12.238;2022-09-09T13:21:38;23.30;99.90
21001;DHT22;10658;50.920;12.238;2022-09-09T13:25:39;23.00;99.90
21001;DHT22;10658;50.920;12.238;2022-09-09T13:29:51;23.10;99.90
21001;DHT22;10658;50.920;12.238;2022-09-09T13:33:56;23.30;99.90
21001;DHT22;10658;50.920;12.238;2022-09-09T13:37:59;23.10;99.90
21001;DHT22;10658;50.920;12.238;2022-09-09T13:42:02;23.10;99.90
21001;DHT22;10658;50.920;12.238;2022-09-09T13:50:34;22.70;99.90
21001;DHT22;10658;50.920;12.238;2022-09-09T13:54:35;22.40;99.90
21001;DHT22;10658;50.920;12.238;2022-09-09T13:58:37;22.20;99.90
21001;DHT22;10658;50.920;12.238;2022-09-09T14:02:38;22.20;99.90
21001;DHT22;10658;50.920;12.238;2022-09-09T14:06:40;21.90;99.90
21001;DHT22;10658;50.920;12.238;2022-09-09T14:10:40;21.70;99.90
21001;DHT22;10658;50.920;12.238;2022-09-09T14:14:42;21.60;99.90
21001;DHT22;10658;50.920;12.238;2022-09-09T14:18:43;21.50;99.90
21001;DHT22;10658;50.920;12.238;2022-09-09T14:22:45;21.30;99.90
21001;DHT22;10658;50.920;12.238;2022-09-09T14:26:47;21.30;99.90
21001;DHT22;10658;50.920;12.238;2022-09-09T14:30:48;21.30;99.90
21001;DHT22;10658;50.920;12.238;2022-09-09T14:34:49;21.20;99.90
21001;DHT22;10658;50.920;12.238;2022-09-09T14:38:51;21.30;99.90
21001;DHT22;10658;50.920;12.238;2022-09-09T14:42:53;21.30;99.90
21001;DHT22;10658;50.920;12.238;2022-09-09T14:46:55;21.90;99.90
21001;DHT22;10658;50.920;12.238;2022-09-09T14:50:55;22.70;99.90
21001;DHT22;10658;50.920;12.238;2022-09-09T14:54:58;23.30;99.90
21001;DHT22;10658;50.920;12.238;2022-09-09T14:59:00;24.20;99.90
21001;DHT22;10658;50.920;12.238;2022-09-09T15:03:01;24.70;99.90
21001;DHT22;10658;50.920;12.238;2022-09-09T15:07:03;23.40;99.90
21001;DHT22;10658;50.920;12.238;2022-09-09T15:11:05;22.80;99.90
21001;DHT22;10658;50.920;12.238;2022-09-09T15:15:08;22.80;99.90
21001;DHT22;10658;50.920;12.238;2022-09-09T15:19:10;22.50;99.90
21001;DHT22;10658;50.920;12.238;2022-09-09T15:23:12;22.50;99.90
21001;DHT22;10658;50.920;12.238;2022-09-09T15:27:14;22.30;99.90
21001;DHT22;10658;50.920;12.238;2022-09-09T15:35:20;21.70;99.90
21001;DHT22;10658;50.920;12.238;2022-09-09T15:39:21;21.60;99.90
21001;DHT22;10658;50.920;12.238;2022-09-09T15:43:23;21.50;99.90
21001;DHT22;10658;50.920;12.238;2022-09-09T15:47:24;21.40;99.90
21001;DHT22;10658;50.920;12.238;2022-09-09T15:51:26;21.40;99.90
21001;DHT22;10658;50.920;12.238;2022-09-09T15:55:28;21.30;99.90
21001;DHT22;10658;50.920;12.238;2022-09-09T15:59:30;21.20;99.90
21001;DHT22;10658;50.920;12.238;2022-09-09T16:03:41;21.10;99.90
21001;DHT22;10658;50.920;12.238;2022-09-09T16:07:43;21.00;99.90
21001;DHT22;10658;50.920;12.238;2022-09-09T16:11:48;21.00;99.90
21001;DHT22;10658;50.920;12.238;2022-09-09T16:15:55;20.80;99.90
21001;DHT22;10658;50.920;12.238;2022-09-09T16:19:56;20.60;99.90
21001;DHT22;10658;50.920;12.238;2022-09-09T16:24:00;20.50;99.90
21001;DHT22;10658;50.920;12.238;2022-09-09T16:28:02;20.40;99.90
21001;DHT22;10658;50.920;12.238;2022-09-09T16:32:04;20.20;99.90
21001;DHT22;10658;50.920;12.238;2022-09-09T16:36:07;20.10;99.90
21001;DHT22;10658;50.920;12.238;2022-09-09T16:40:09;19.90;99.90
21001;DHT22;10658;50.920;12.238;2022-09-09T16:44:11;19.80;99.90
21001;DHT22;10658;50.920;12.238;2022-09-09T16:48:13;19.60;99.90
21001;DHT22;10658;50.920;12.238;2022-09-09T16:52:15;19.40;99.90
21001;DHT22;10658;50.920;12.238;2022-09-09T16:56:18;19.30;99.90
21001;DHT22;10658;50.920;12.238;2022-09-09T17:00:21;19.20;99.90
21001;DHT22;10658;50.920;12.238;2022-09-09T17:04:26;19.10;99.90
21001;DHT22;10658;50.920;12.238;2022-09-09T17:08:31;19.00;99.90
21001;DHT22;10658;50.920;12.238;2022-09-09T17:12:33;19.00;99.90
21001;DHT22;10658;50.920;12.238;2022-09-09T17:16:37;18.80;99.90
21001;DHT22;10658;50.920;12.238;2022-09-09T17:20:41;18.70;99.90
21001;DHT22;10658;50.920;12.238;2022-09-09T17:24:42;18.50;99.90
21001;DHT22;10658;50.920;12.238;2022-09-09T17:28:45;18.40;99.90
21001;DHT22;10658;50.920;12.238;2022-09-09T17:32:49;18.30;99.90
21001;DHT22;10658;50.920;12.238;2022-09-09T17:36:49;18.20;99.90
21001;DHT22;10658;50.920;12.238;2022-09-09T17:40:50;18.00;99.90
21001;DHT22;10658;50.920;12.238;2022-09-09T17:45:02;17.90;99.90
21001;DHT22;10658;50.920;12.238;2022-09-09T17:49:06;17.80;99.90
21001;DHT22;10658;50.920;12.238;2022-09-09T17:53:08;17.60;99.90
21001;DHT22;10658;50.920;12.238;2022-09-09T17:57:10;17.50;99.90
21001;DHT22;10658;50.920;12.238;2022-09-09T18:01:17;17.40;99.90
21001;DHT22;10658;50.920;12.238;2022-09-09T18:05:18;17.40;99.90
21001;DHT22;10658;50.920;12.238;2022-09-09T18:09:24;17.30;99.90
21001;DHT22;10658;50.920;12.238;2022-09-09T18:13:25;17.30;99.90
21001;DHT22;10658;50.920;12.238;2022-09-09T18:17:27;17.30;99.90
21001;DHT22;10658;50.920;12.238;2022-09-09T18:21:31;17.20;99.90
21001;DHT22;10658;50.920;12.238;2022-09-09T18:25:39;17.10;99.90
21001;DHT22;10658;50.920;12.238;2022-09-09T18:29:40;16.90;99.90
21001;DHT22;10658;50.920;12.238;2022-09-09T18:33:44;16.80;99.90
21001;DHT22;10658;50.920;12.238;2022-09-09T18:37:46;16.80;99.90
21001;DHT22;10658;50.920;12.238;2022-09-09T18:41:49;16.80;99.90
21001;DHT22;10658;50.920;12.238;2022-09-09T18:45:51;16.80;99.90
21001;DHT22;10658;50.920;12.238;2022-09-09T18:49:52;16.80;99.90
21001;DHT22;10658;50.920;12.238;2022-09-09T18:53:55;16.80;99.90
21001;DHT22;10658;50.920;12.238;2022-09-09T18:57:58;16.80;99.90
21001;DHT22;10658;50.920;12.238;2022-09-09T19:01:59;16.80;99.90
21001;DHT22;10658;50.920;12.238;2022-09-09T19:06:03;16.80;99.90
21001;DHT22;10658;50.920;12.238;2022-09-09T19:10:05;16.70;99.90
21001;DHT22;10658;50.920;12.238;2022-09-09T19:14:07;16.70;99.90
21001;DHT22;10658;50.920;12.238;2022-09-09T19:18:10;16.70;99.90
21001;DHT22;10658;50.920;12.238;2022-09-09T19:22:11;16.70;99.90
21001;DHT22;10658;50.920;12.238;2022-09-09T19:26:14;16.70;99.90
21001;DHT22;10658;50.920;12.238;2022-09-09T19:30:19;16.70;99.90
21001;DHT22;10658;50.920;12.238;2022-09-09T19:34:21;16.70;99.90
21001;DHT22;10658;50.920;12.238;2022-09-09T19:38:22;16.70;99.90
21001;DHT22;10658;50.920;12.238;2022-09-09T19:42:24;16.60;99.90
21001;DHT22;10658;50.920;12.238;2022-09-09T19:46:24;16.60;99.90
21001;DHT22;10658;50.920;12.238;2022-09-09T19:50:26;16.60;99.90
21001;DHT22;10658;50.920;12.238;2022-09-09T19:54:28;16.60;99.90
21001;DHT22;10658;50.920;12.238;2022-09-09T19:58:30;16.60;99.90
21001;DHT22;10658;50.920;12.238;2022-09-09T20:02:35;16.60;99.90
21001;DHT22;10658;50.920;12.238;2022-09-09T20:06:38;16.60;99.90
21001;DHT22;10658;50.920;12.238;2022-09-09T20:10:39;16.50;99.90
21001;DHT22;10658;50.920;12.238;2022-09-09T20:14:40;16.50;99.90
21001;DHT22;10658;50.920;12.238;2022-09-09T20:18:47;16.40;99.90
21001;DHT22;10658;50.920;12.238;2022-09-09T20:22:50;16.40;99.90
21001;DHT22;10658;50.920;12.238;2022-09-09T20:26:51;16.20;99.90
21001;DHT22;10658;50.920;12.238;2022-09-09T20:30:52;16.20;99.90
21001;DHT22;10658;50.920;12.238;2022-09-09T20:34:53;16.10;99.90
21001;DHT22;10658;50.920;12.238;2022-09-09T20:38:57;16.10;99.90
21001;DHT22;10658;50.920;12.238;2022-09-09T20:42:59;16.00;99.90
21001;DHT22;10658;50.920;12.238;2022-09-09T20:46:59;15.90;99.90
21001;DHT22;10658;50.920;12.238;2022-09-09T20:51:06;15.80;99.90
21001;DHT22;10658;50.920;12.238;2022-09-09T20:55:09;15.80;99.90
21001;DHT22;10658;50.920;12.238;2022-09-09T20:59:14;15.70;99.90
21001;DHT22;10658;50.920;12.238;2022-09-09T21:03:15;15.70;99.90
21001;DHT22;10658;50.920;12.238;2022-09-09T21:07:16;15.70;99.90
21001;DHT22;10658;50.920;12.238;2022-09-09T21:11:17;15.60;99.90
21001;DHT22;10658;50.920;12.238;2022-09-09T21:15:19;15.50;99.90
21001;DHT22;10658;50.920;12.238;2022-09-09T21:19:20;15.50;99.90
21001;DHT22;10658;50.920;12.238;2022-09-09T21:23:22;15.50;99.90
21001;DHT22;10658;50.920;12.238;2022-09-09T21:27:24;15.40;99.90
21001;DHT22;10658;50.920;12.238;2022-09-09T21:31:25;15.40;99.90
21001;DHT22;10658;50.920;12.238;2022-09-09T21:35:27;15.40;99.90
21001;DHT22;10658;50.920;12.238;2022-09-09T21:39:27;15.30;99.90
21001;DHT22;10658;50.920;12.238;2022-09-09T21:43:29;15.30;99.90
21001;DHT22;10658;50.920;12.238;2022-09-09T21:47:30;15.20;99.90
21001;DHT22;10658;50.920;12.238;2022-09-09T21:51:31;15.20;99.90
21001;DHT22;10658;50.920;12.238;2022-09-09T21:55:33;15.10;99.90
21001;DHT22;10658;50.920;12.238;2022-09-09T21:59:34;15.10;99.90
21001;DHT22;10658;50.920;12.238;2022-09-09T22:03:37;15.10;99.90
21001;DHT22;10658;50.920;12.238;2022-09-09T22:07:39;15.10;99.90
21001;DHT22;10658;50.920;12.238;2022-09-09T22:11:41;15.00;99.90
21001;DHT22;10658;50.920;12.238;2022-09-09T22:15:43;15.00;99.90
21001;DHT22;10658;50.920;12.238;2022-09-09T22:19:45;14.90;99.90
21001;DHT22;10658;50.920;12.238;2022-09-09T22:23:59;14.90;99.90
21001;DHT22;10658;50.920;12.238;2022-09-09T22:28:01;14.90;99.90
21001;DHT22;10658;50.920;12.238;2022-09-09T22:32:03;14.90;99.90
21001;DHT22;10658;50.920;12.238;2022-09-09T22:36:06;14.90;99.90
21001;DHT22;10658;50.920;12.238;2022-09-09T22:40:07;14.90;99.90
21001;DHT22;10658;50.920;12.238;2022-09-09T22:44:11;14.80;99.90
21001;DHT22;10658;50.920;12.238;2022-09-09T22:48:13;14.70;99.90
21001;DHT22;10658;50.920;12.238;2022-09-09T22:52:14;14.70;99.90
21001;DHT22;10658;50.920;12.238;2022-09-09T22:56:18;14.60;99.90
21001;DHT22;10658;50.920;12.238;2022-09-09T23:00:20;14.50;99.90
21001;DHT22;10658;50.920;12.238;2022-09-09T23:04:22;14.50;99.90
21001;DHT22;10658;50.920;12.238;2022-09-09T23:08:32;14.50;99.90
21001;DHT22;10658;50.920;12.238;2022-09-09T23:12:50;14.50;99.90
21001;DHT22;10658;50.920;12.238;2022-09-09T23:16:51;14.40;99.90
21001;DHT22;10658;50.920;12.238;2022-09-09T23:20:58;14.40;99.90
21001;DHT22;10658;50.920;12.238;2022-09-09T23:25:03;14.40;99.90
21001;DHT22;10658;50.920;12.238;2022-09-09T23:29:06;14.30;99.90
21001;DHT22;10658;50.920;12.238;2022-09-09T23:33:07;14.30;99.90
21001;DHT22;10658;50.920;12.238;2022-09-09T23:37:07;14.20;99.90
21001;DHT22;10658;50.920;12.238;2022-09-09T23:41:13;14.20;99.90
21001;DHT22;10658;50.920;12.238;2022-09-09T23:45:15;14.10;99.90
21001;DHT22;10658;50.920;12.238;2022-09-09T23:49:16;14.10;99.90
21001;DHT22;10658;50.920;12.238;2022-09-09T23:53:17;14.20;99.90
21001;DHT22;10658;50.920;12.238;2022-09-09T23:57:18;14.20;99.90
